Search for airport 
image banner adimage banner adimage banner ad
image banner ad

IA40 - Osceola Community Hospital

Located in Sibley, United States

ICAO - IA40, IATA -

Data provided by Airmate  

General information

Coordinates: N43°24'35" W95°44'36"
Elevation is 1537 feet MSL.
Magnetic variation is 06° East
View others Airports in Iowa

Operational data

Special qualification required
Current time UTC:
Current local time:
Weather at : KSHL - Sheldon Rgnl ( 24 km )
METAR: KSHL 150955Z AUTO 00000KT 10SM CLR 12/09 A3012 RMK AO2
View NOTAMs / SUP AIP / TFR affecting this airport [VIEW]
Communications frequencies: [VIEW]

Runways:

Airport contact information

Address: Sibley United States

Satellite view of IA40